createdAt,value
2018-09-23T00:01:57.700Z,8.77
2018-09-23T00:07:52.886Z,10.32
2018-09-23T00:13:45.839Z,9.91
2018-09-23T00:19:40.884Z,10.65
2018-09-23T00:25:35.851Z,8.7
2018-09-23T00:31:30.868Z,8.06
2018-09-23T00:37:25.865Z,10.54
2018-09-23T00:43:20.855Z,7.81
2018-09-23T00:49:18.320Z,9.02
2018-09-23T00:55:10.856Z,7.99
2018-09-23T01:01:05.921Z,8.33
2018-09-23T01:07:00.894Z,8.13
2018-09-23T01:12:55.897Z,9.1
2018-09-23T01:18:50.908Z,9.04
2018-09-23T01:24:47.319Z,7.89
2018-09-23T01:30:40.909Z,8
2018-09-23T01:36:35.903Z,7.92
2018-09-23T01:42:30.908Z,8.42
2018-09-23T01:48:25.934Z,8.63
2018-09-23T01:54:20.940Z,10.63
2018-09-23T02:00:17.619Z,9.92
2018-09-23T02:06:10.940Z,8.26
2018-09-23T02:12:05.937Z,7.36
2018-09-23T02:18:00.956Z,9.77
2018-09-23T02:23:56.025Z,9.78
2018-09-23T02:29:50.950Z,9.56
2018-09-23T02:35:45.962Z,7.49
2018-09-23T02:41:41.009Z,8.35
2018-09-23T02:47:35.980Z,9.15
2018-09-23T02:53:30.985Z,8.27
2018-09-23T02:59:25.985Z,7.85
2018-09-23T03:05:21.032Z,8.66
2018-09-23T03:11:16.041Z,8.97
2018-09-23T03:17:11.017Z,8.07
2018-09-23T03:23:06.049Z,8.27
2018-09-23T03:29:01.024Z,9.82
2018-09-23T03:34:56.033Z,7.85
2018-09-23T03:40:51.028Z,10.05
2018-09-23T03:46:46.120Z,7.64
2018-09-23T03:52:41.068Z,9.55
2018-09-23T03:58:36.039Z,9.03
2018-09-23T04:04:31.089Z,8.81
2018-09-23T04:10:26.040Z,8.84
2018-09-23T04:16:21.068Z,10.19
2018-09-23T04:22:16.097Z,10.29
2018-09-23T04:28:11.067Z,9.31
2018-09-23T04:34:06.072Z,8.32
2018-09-23T04:40:01.097Z,8.36
2018-09-23T04:45:56.096Z,8.26
2018-09-23T04:51:51.117Z,8.34
2018-09-23T04:57:46.105Z,7.94
2018-09-23T05:03:41.116Z,8.65
2018-09-23T05:09:36.119Z,8.46
2018-09-23T05:15:31.191Z,10.6
2018-09-23T05:21:26.141Z,16.96
2018-09-23T05:27:21.140Z,19.98
2018-09-23T05:33:16.156Z,13.81
2018-09-23T05:39:11.159Z,10.07
2018-09-23T05:45:06.169Z,17.89
2018-09-23T05:51:01.168Z,13.21
2018-09-23T05:56:56.199Z,12.56
2018-09-23T06:02:51.185Z,9.36
2018-09-23T06:08:46.228Z,11.83
2018-09-23T06:14:41.195Z,9.68
2018-09-23T06:20:36.195Z,10.05
2018-09-23T06:26:31.192Z,9.82
2018-09-23T06:32:26.197Z,15.17
2018-09-23T06:38:21.242Z,15.33
2018-09-23T06:44:16.208Z,15.76
2018-09-23T06:50:11.215Z,16.12
2018-09-23T06:56:06.225Z,10.93
2018-09-23T07:02:01.226Z,12.53
2018-09-23T07:07:56.273Z,13.61
2018-09-23T07:13:51.238Z,12.99
2018-09-23T07:19:46.224Z,16.54
2018-09-23T07:25:41.259Z,17.17
2018-09-23T07:31:36.260Z,15.71
2018-09-23T07:37:31.263Z,15.85
2018-09-23T07:43:26.263Z,16.77
2018-09-23T07:49:21.336Z,20.24
2018-09-23T07:55:16.354Z,13.61
2018-09-23T08:01:13.116Z,16.89
2018-09-23T08:07:06.353Z,16.13
2018-09-23T08:13:01.549Z,21.27
2018-09-23T08:18:56.306Z,16.68
2018-09-23T08:24:51.310Z,17.17
2018-09-23T08:30:46.333Z,16.58
2018-09-23T08:36:41.316Z,14.72
2018-09-23T08:42:36.312Z,14.44
2018-09-23T08:48:31.406Z,20.43
2018-09-23T08:54:26.375Z,21.26
2018-09-23T09:00:23.286Z,13.96
2018-09-23T09:06:16.401Z,15.46
2018-09-23T09:12:11.377Z,12.9
2018-09-23T09:18:06.434Z,12.09
2018-09-23T09:24:01.368Z,9.63
2018-09-23T09:29:56.392Z,10.79
2018-09-23T09:35:51.392Z,11.14
2018-09-23T09:41:46.374Z,12.71
2018-09-23T09:47:41.377Z,11.42
2018-09-23T09:53:36.390Z,12.33
2018-09-23T09:59:31.389Z,12.63
2018-09-23T10:05:26.435Z,10.35
2018-09-23T10:11:21.410Z,10.91
2018-09-23T10:17:16.459Z,11.68
2018-09-23T10:23:11.595Z,13.53
2018-09-23T10:29:06.489Z,11.03
2018-09-23T10:35:01.434Z,9.92
2018-09-23T10:40:56.492Z,10.63
2018-09-23T10:46:51.453Z,9.13
2018-09-23T10:52:46.474Z,9.63
2018-09-23T10:58:41.462Z,8.96
2018-09-23T11:04:36.476Z,9
2018-09-23T11:10:31.579Z,11.64
2018-09-23T11:16:26.495Z,7.53
2018-09-23T11:22:21.486Z,10.56
2018-09-23T11:28:16.469Z,7.31
2018-09-23T11:34:11.507Z,8.51
2018-09-23T11:40:06.561Z,7.78
2018-09-23T11:46:01.500Z,7.06
2018-09-23T11:51:56.526Z,7.64
2018-09-23T11:57:51.524Z,8.34
2018-09-23T12:03:46.518Z,9.4
2018-09-23T12:09:41.570Z,7.8
2018-09-23T12:15:36.555Z,9.17
2018-09-23T12:21:31.539Z,8.52
2018-09-23T12:27:26.549Z,10
2018-09-23T12:33:21.684Z,4.67
2018-09-23T12:39:16.546Z,5.55
2018-09-23T12:45:11.563Z,7.44
2018-09-23T12:51:06.570Z,9
2018-09-23T12:57:01.576Z,4.95
2018-09-23T13:02:56.601Z,5.78
2018-09-23T13:08:51.568Z,7.71
2018-09-23T13:14:46.610Z,5.95
2018-09-23T13:20:41.604Z,6.25
2018-09-23T13:26:36.588Z,8.17
2018-09-23T13:32:31.617Z,11.55
2018-09-23T13:38:26.637Z,6.53
2018-09-23T13:44:21.636Z,5.26
2018-09-23T13:50:16.668Z,5.74
2018-09-23T13:56:11.649Z,5.7
2018-09-23T14:02:06.638Z,8.21
2018-09-23T14:08:01.710Z,7.12
2018-09-23T14:13:56.686Z,5.08
2018-09-23T14:19:51.662Z,6.76
2018-09-23T14:25:46.680Z,6.49
2018-09-23T14:31:41.664Z,7.82
2018-09-23T14:37:36.688Z,10.89
2018-09-23T14:43:31.687Z,6.54
2018-09-23T14:49:26.696Z,6
2018-09-23T14:55:21.696Z,5.79
2018-09-23T15:01:16.704Z,6.46
2018-09-23T15:07:11.720Z,5.92
2018-09-23T15:13:06.779Z,7.15
2018-09-23T15:19:01.740Z,7.87
2018-09-23T15:24:56.742Z,6.05
2018-09-23T15:30:53.425Z,9.69
2018-09-23T15:36:46.758Z,6.57
2018-09-23T15:42:41.731Z,8.17
2018-09-23T15:48:36.760Z,7.12
2018-09-23T15:54:31.764Z,7.44
2018-09-23T16:00:26.778Z,10.23
2018-09-23T16:06:21.786Z,9.81
2018-09-23T16:12:16.777Z,5.66
2018-09-23T16:18:11.846Z,13.26
2018-09-23T16:24:06.811Z,8.37
2018-09-23T16:30:01.868Z,9.2
2018-09-23T16:35:56.843Z,8.71
2018-09-23T16:41:51.843Z,9.99
2018-09-23T16:47:46.938Z,8.52
2018-09-23T16:53:41.815Z,10.37
2018-09-23T16:59:36.846Z,11.71
2018-09-23T17:05:31.836Z,11.94
2018-09-23T17:11:26.876Z,10
2018-09-23T17:17:21.859Z,11.34
2018-09-23T17:23:16.884Z,9.33
2018-09-23T17:29:11.859Z,11.85
2018-09-23T17:35:07.015Z,13.98
2018-09-23T17:41:02.270Z,9.57
2018-09-23T17:46:56.876Z,10.83
2018-09-23T17:52:51.917Z,9.42
2018-09-23T17:58:46.903Z,12.96
2018-09-23T18:04:41.881Z,12.09
2018-09-23T18:10:36.888Z,10.45
2018-09-23T18:16:31.907Z,15.96
2018-09-23T18:22:26.896Z,9.98
2018-09-23T18:28:21.932Z,14.34
2018-09-23T18:34:16.958Z,13.97
2018-09-23T18:40:11.960Z,10.91
2018-09-23T18:46:06.945Z,7.72
2018-09-23T18:52:01.971Z,11.11
2018-09-23T18:57:56.949Z,10.8
2018-09-23T19:03:51.989Z,9.4
2018-09-23T19:09:46.974Z,14.44
2018-09-23T19:15:41.947Z,11.85
2018-09-23T19:21:36.959Z,13.78
2018-09-23T19:27:32.015Z,13.03
2018-09-23T19:33:26.988Z,12.4
2018-09-23T19:39:21.978Z,11.02
2018-09-23T19:45:17.009Z,10.58
2018-09-23T19:51:11.989Z,11.89
2018-09-23T19:57:07.043Z,11.6
2018-09-23T20:03:02.008Z,17.67
2018-09-23T20:08:57.019Z,12.15
2018-09-23T20:14:52.009Z,11.75
2018-09-23T20:20:47.027Z,10.34
2018-09-23T20:26:42.029Z,10.18
2018-09-23T20:32:37.028Z,7.59
2018-09-23T20:38:32.123Z,14.25
2018-09-23T20:44:27.037Z,11.8
2018-09-23T20:50:22.051Z,8.46
2018-09-23T20:56:17.065Z,12.11
2018-09-23T21:02:12.120Z,12
2018-09-23T21:08:07.057Z,11.39
2018-09-23T21:14:02.086Z,11.31
2018-09-23T21:19:57.077Z,10.81
2018-09-23T21:25:52.100Z,13.14
2018-09-23T21:31:47.110Z,10.97
2018-09-23T21:37:42.182Z,9.58
2018-09-23T21:43:37.103Z,9.68
2018-09-23T21:49:32.114Z,12.25
2018-09-23T21:55:27.111Z,8.96
2018-09-23T22:01:22.127Z,9.33
2018-09-23T22:07:17.124Z,15.03
2018-09-23T22:13:12.127Z,9.49
2018-09-23T22:19:07.182Z,10.67
2018-09-23T22:25:02.160Z,10.48
2018-09-23T22:30:57.231Z,13.75
2018-09-23T22:36:52.170Z,11.01
2018-09-23T22:42:47.152Z,11.6
2018-09-23T22:48:42.222Z,9.78
2018-09-23T22:54:37.185Z,9.37
2018-09-23T23:00:32.185Z,9.09
2018-09-23T23:06:27.193Z,10.04
2018-09-23T23:12:22.184Z,8.37
2018-09-23T23:18:17.228Z,12
2018-09-23T23:24:12.222Z,9.36
2018-09-23T23:30:07.386Z,10.73
2018-09-23T23:36:02.207Z,6.38
2018-09-23T23:41:57.235Z,9.01
2018-09-23T23:47:52.218Z,12.91
2018-09-23T23:53:47.236Z,7.25
2018-09-23T23:59:42.342Z,8.03
